createdAt,value
2018-01-24T00:01:54.072Z,36.10
2018-01-24T00:04:21.178Z,29.53
2018-01-24T00:06:47.637Z,35.00
2018-01-24T00:09:14.034Z,36.27
2018-01-24T00:11:40.435Z,29.13
2018-01-24T00:14:06.820Z,32.40
2018-01-24T00:16:33.248Z,33.17
2018-01-24T00:18:59.656Z,27.87
2018-01-24T00:21:26.055Z,28.03
2018-01-24T00:23:53.175Z,30.33
2018-01-24T00:26:19.566Z,34.97
2018-01-24T00:28:45.953Z,27.77
2018-01-24T00:31:13.062Z,31.20
2018-01-24T00:33:39.425Z,34.00
2018-01-24T00:36:05.823Z,27.30
2018-01-24T00:38:32.226Z,29.57
2018-01-24T00:40:58.596Z,33.03
2018-01-24T00:43:24.986Z,36.47
2018-01-24T00:45:51.374Z,33.77
2018-01-24T00:48:17.749Z,28.90
2018-01-24T00:50:44.131Z,33.37
2018-01-24T00:53:10.506Z,31.23
2018-01-24T00:55:37.621Z,29.47
2018-01-24T00:58:04.078Z,34.63
2018-01-24T01:00:31.210Z,33.50
2018-01-24T01:02:57.594Z,30.10
2018-01-24T01:05:23.965Z,31.33
2018-01-24T01:07:50.339Z,38.13
2018-01-24T01:10:16.722Z,27.10
2018-01-24T01:12:43.167Z,31.67
2018-01-24T01:15:09.570Z,27.87
2018-01-24T01:17:35.938Z,30.33
2018-01-24T01:20:03.080Z,28.80
2018-01-24T01:22:29.454Z,33.93
2018-01-24T01:24:55.826Z,26.50
2018-01-24T01:27:22.207Z,32.30
2018-01-24T01:29:48.572Z,33.53
2018-01-24T01:32:14.978Z,30.97
2018-01-24T01:34:41.401Z,36.27
2018-01-24T01:37:08.517Z,33.83
2018-01-24T01:39:34.907Z,30.43
2018-01-24T01:42:01.314Z,26.30
2018-01-24T01:44:27.719Z,31.00
2018-01-24T01:46:54.133Z,31.67
2018-01-24T01:49:20.578Z,29.63
2018-01-24T01:51:47.017Z,36.00
2018-01-24T01:54:13.401Z,38.57
2018-01-24T01:56:39.807Z,47.13
2018-01-24T01:59:07.003Z,35.17
2018-01-24T02:01:33.418Z,45.00
2018-01-24T02:03:59.799Z,31.50
2018-01-24T02:06:26.159Z,31.83
2018-01-24T02:08:52.518Z,36.90
2018-01-24T02:11:18.890Z,31.47
2018-01-24T02:13:45.379Z,38.60
2018-01-24T02:16:11.788Z,41.87
2018-01-24T02:18:38.153Z,39.13
2018-01-24T02:21:04.529Z,38.10
2018-01-24T02:23:31.693Z,36.90
2018-01-24T02:25:58.840Z,45.30
2018-01-24T02:28:25.990Z,39.60
2018-01-24T02:30:52.373Z,37.27
2018-01-24T02:33:18.758Z,36.00
2018-01-24T02:35:45.908Z,41.13
2018-01-24T02:38:24.679Z,47.60
2018-01-24T02:40:51.067Z,38.33
2018-01-24T02:43:17.464Z,36.17
2018-01-24T02:45:43.843Z,36.10
2018-01-24T02:48:10.204Z,34.83
2018-01-24T02:50:36.578Z,35.00
2018-01-24T02:53:03.697Z,40.90
2018-01-24T02:55:30.082Z,37.23
2018-01-24T02:57:56.469Z,37.87
2018-01-24T03:00:22.842Z,37.17
2018-01-24T03:02:49.218Z,36.27
2018-01-24T03:05:15.651Z,43.13
2018-01-24T03:07:42.047Z,39.80
2018-01-24T03:10:08.482Z,42.40
2018-01-24T03:12:34.915Z,35.17
2018-01-24T03:15:01.291Z,42.57
2018-01-24T03:17:28.422Z,37.30
2018-01-24T03:19:55.069Z,35.43
2018-01-24T03:22:21.458Z,46.10
2018-01-24T03:24:47.823Z,46.53
2018-01-24T03:27:14.276Z,40.93
2018-01-24T03:29:40.725Z,47.70
2018-01-24T03:32:07.838Z,36.23
2018-01-24T03:34:34.233Z,50.10
2018-01-24T03:37:00.623Z,44.67
2018-01-24T03:39:27.010Z,40.20
2018-01-24T03:41:53.385Z,38.27
2018-01-24T03:44:19.771Z,42.53
2018-01-24T03:46:46.164Z,43.80
2018-01-24T03:49:13.288Z,45.50
2018-01-24T03:51:39.668Z,57.60
2018-01-24T03:54:06.054Z,42.73
2018-01-24T03:56:32.434Z,42.23
2018-01-24T03:58:58.814Z,36.83
2018-01-24T04:01:25.206Z,45.27
2018-01-24T04:03:51.570Z,36.30
2018-01-24T04:06:17.928Z,36.07
2018-01-24T04:08:44.318Z,37.27
2018-01-24T04:11:10.716Z,40.73
2018-01-24T04:13:37.129Z,48.37
2018-01-24T04:16:04.227Z,41.50
2018-01-24T04:18:30.620Z,40.63
2018-01-24T04:20:57.750Z,40.60
2018-01-24T04:23:24.187Z,50.53
2018-01-24T04:25:51.334Z,46.97
2018-01-24T04:28:17.694Z,46.90
2018-01-24T04:30:44.060Z,41.07
2018-01-24T04:33:10.516Z,44.90
2018-01-24T04:35:36.910Z,38.47
2018-01-24T04:38:03.330Z,29.90
2018-01-24T04:40:29.698Z,39.60
2018-01-24T04:42:56.062Z,44.33
2018-01-24T04:45:23.234Z,37.13
2018-01-24T04:47:49.605Z,35.33
2018-01-24T04:50:16.033Z,41.27
2018-01-24T04:52:42.401Z,47.13
2018-01-24T04:55:08.773Z,45.03
2018-01-24T04:57:35.194Z,40.50
2018-01-24T05:00:01.614Z,40.27
2018-01-24T05:02:28.778Z,36.73
2018-01-24T05:04:55.212Z,36.40
2018-01-24T05:07:21.630Z,37.70
2018-01-24T05:09:48.793Z,44.50
2018-01-24T05:12:15.226Z,45.40
2018-01-24T05:14:41.660Z,42.33
2018-01-24T05:17:08.069Z,43.27
2018-01-24T05:19:35.250Z,43.53
2018-01-24T05:22:01.990Z,45.27
2018-01-24T05:24:28.415Z,39.10
2018-01-24T05:26:54.810Z,33.50
2018-01-24T05:29:21.187Z,37.20
2018-01-24T05:31:47.633Z,42.10
2018-01-24T05:34:14.028Z,39.60
2018-01-24T05:36:41.230Z,36.90
2018-01-24T05:39:07.622Z,43.30
2018-01-24T05:41:34.746Z,53.57
2018-01-24T05:44:01.156Z,54.30
2018-01-24T05:46:27.557Z,52.83
2018-01-24T05:48:53.933Z,47.73
2018-01-24T05:51:20.319Z,43.87
2018-01-24T05:53:46.702Z,42.70
2018-01-24T05:56:13.075Z,43.63
2018-01-24T05:58:39.467Z,40.60
2018-01-24T06:01:05.866Z,49.47
2018-01-24T06:03:32.257Z,42.53
2018-01-24T06:05:59.371Z,34.67
2018-01-24T06:08:25.776Z,41.07
2018-01-24T06:10:52.143Z,38.43
2018-01-24T06:13:18.533Z,43.33
2018-01-24T06:15:44.933Z,35.03
2018-01-24T06:18:12.038Z,40.13
2018-01-24T06:20:38.434Z,35.87
2018-01-24T06:23:04.818Z,44.10
2018-01-24T06:25:31.207Z,100.67
2018-01-24T06:27:57.606Z,62.13
2018-01-24T06:30:24.726Z,76.33
2018-01-24T06:32:51.122Z,67.17
2018-01-24T06:35:17.514Z,170.17
2018-01-24T06:37:44.623Z,129.10
2018-01-24T06:40:11.070Z,59.10
2018-01-24T06:42:38.275Z,45.77
2018-01-24T06:45:04.674Z,44.00
2018-01-24T06:47:31.816Z,43.23
2018-01-24T06:49:58.930Z,65.43
2018-01-24T06:52:25.371Z,61.47
2018-01-24T06:54:51.727Z,43.67
2018-01-24T06:57:18.854Z,47.53
2018-01-24T06:59:45.240Z,48.40
2018-01-24T07:02:11.638Z,46.77
2018-01-24T07:04:38.775Z,41.80
2018-01-24T07:07:05.149Z,49.00
2018-01-24T07:09:31.554Z,63.73
2018-01-24T07:12:10.879Z,66.27
2018-01-24T07:14:44.025Z,95.33
2018-01-24T07:17:10.531Z,49.80
2018-01-24T07:19:37.662Z,49.47
2018-01-24T07:22:04.853Z,106.23
2018-01-24T07:24:31.259Z,61.03
2018-01-24T07:26:58.426Z,63.27
2018-01-24T07:29:24.858Z,40.90
2018-01-24T07:31:52.185Z,43.83
2018-01-24T07:34:19.306Z,39.10
2018-01-24T07:36:45.744Z,47.40
2018-01-24T07:39:12.141Z,41.50
2018-01-24T07:41:38.516Z,39.23
2018-01-24T07:44:04.898Z,53.57
2018-01-24T07:46:31.325Z,52.13
2018-01-24T07:48:57.760Z,48.43
2018-01-24T07:51:24.180Z,97.63
2018-01-24T07:53:50.621Z,160.67
2018-01-24T07:56:17.178Z,55.53
2018-01-24T07:58:43.590Z,41.87
2018-01-24T08:01:10.018Z,49.30
2018-01-24T08:03:36.446Z,49.20
2018-01-24T08:06:03.628Z,66.40
2018-01-24T08:08:30.025Z,43.70
2018-01-24T08:10:56.395Z,37.80
2018-01-24T08:13:22.775Z,37.10
2018-01-24T08:15:49.899Z,37.77
2018-01-24T08:18:16.290Z,39.73
2018-01-24T08:20:42.687Z,39.50
2018-01-24T08:23:09.859Z,48.67
2018-01-24T08:25:36.287Z,57.37
2018-01-24T08:28:04.327Z,59.67
2018-01-24T08:30:30.709Z,58.17
2018-01-24T08:32:57.066Z,57.20
2018-01-24T08:35:23.469Z,75.10
2018-01-24T08:37:49.891Z,59.83
2018-01-24T08:40:16.303Z,58.37
2018-01-24T08:42:43.444Z,55.83
2018-01-24T08:45:10.570Z,38.73
2018-01-24T08:47:37.698Z,51.50
2018-01-24T08:50:04.136Z,40.90
2018-01-24T08:52:30.519Z,39.33
2018-01-24T08:54:57.671Z,48.80
2018-01-24T08:57:24.812Z,41.50
2018-01-24T08:59:51.211Z,50.80
2018-01-24T09:02:17.613Z,45.43
2018-01-24T09:04:43.995Z,43.40
2018-01-24T09:07:10.418Z,30.10
2018-01-24T09:09:36.820Z,31.20
2018-01-24T09:12:03.191Z,35.73
2018-01-24T09:14:30.324Z,39.17
2018-01-24T09:16:56.694Z,44.10
2018-01-24T09:19:23.826Z,37.07
2018-01-24T09:21:50.231Z,32.23
2018-01-24T09:24:16.630Z,61.83
2018-01-24T09:26:43.047Z,40.50
2018-01-24T09:29:10.150Z,34.80
2018-01-24T09:31:36.554Z,29.87
2018-01-24T09:34:02.954Z,32.80
2018-01-24T09:36:30.103Z,29.90
2018-01-24T09:38:57.270Z,31.20
2018-01-24T09:41:23.686Z,35.93
2018-01-24T09:43:50.078Z,29.83
2018-01-24T09:46:16.470Z,37.67
2018-01-24T09:48:42.852Z,23.47
2018-01-24T09:51:10.026Z,23.63
2018-01-24T09:53:37.153Z,24.80
2018-01-24T09:56:03.541Z,28.40
2018-01-24T09:58:29.906Z,47.63
2018-01-24T10:00:56.281Z,30.73
2018-01-24T10:03:23.453Z,19.57
2018-01-24T10:05:49.822Z,21.83
2018-01-24T10:08:16.223Z,21.03
2018-01-24T10:10:42.609Z,18.93
2018-01-24T10:13:08.986Z,20.73
2018-01-24T10:15:35.347Z,24.77
2018-01-24T10:18:01.721Z,15.73
2018-01-24T10:20:28.094Z,16.37
2018-01-24T10:22:54.467Z,21.10
2018-01-24T10:25:20.849Z,17.93
2018-01-24T10:27:47.226Z,14.20
2018-01-24T10:30:14.355Z,27.40
2018-01-24T10:32:40.735Z,16.60
2018-01-24T10:35:07.883Z,16.23
2018-01-24T10:37:34.998Z,29.23
2018-01-24T10:40:02.907Z,29.30
2018-01-24T10:42:29.303Z,19.83
2018-01-24T10:44:56.440Z,18.73
2018-01-24T10:47:22.820Z,22.87
2018-01-24T10:49:49.233Z,22.77
2018-01-24T10:52:16.342Z,20.27
2018-01-24T10:54:43.540Z,12.00
2018-01-24T10:57:10.706Z,14.30
2018-01-24T10:59:37.078Z,10.33
2018-01-24T11:02:03.469Z,10.20
2018-01-24T11:04:29.854Z,10.60
2018-01-24T11:06:56.236Z,13.23
2018-01-24T11:09:22.654Z,8.30
2018-01-24T11:11:49.861Z,6.00
2018-01-24T11:14:16.234Z,6.07
2018-01-24T11:16:43.389Z,7.57
2018-01-24T11:19:09.754Z,7.40
2018-01-24T11:21:36.150Z,6.63
2018-01-24T11:24:02.562Z,10.03
2018-01-24T11:26:29.694Z,5.77
2018-01-24T11:28:56.082Z,6.30
2018-01-24T11:31:22.474Z,6.00
2018-01-24T11:33:48.937Z,10.63
2018-01-24T11:36:16.086Z,6.07
2018-01-24T11:38:42.484Z,6.40
2018-01-24T11:41:10.343Z,7.67
2018-01-24T11:43:37.458Z,17.30
2018-01-24T11:46:03.856Z,6.73
2018-01-24T11:48:31.040Z,7.43
2018-01-24T11:50:57.423Z,12.93
2018-01-24T11:53:24.556Z,8.23
2018-01-24T11:55:51.723Z,10.10
2018-01-24T11:58:18.889Z,10.83
2018-01-24T12:00:45.347Z,17.70
2018-01-24T12:03:11.747Z,37.90
2018-01-24T12:05:38.867Z,15.50
2018-01-24T12:08:06.018Z,17.33
2018-01-24T12:10:33.899Z,18.20
2018-01-24T12:13:01.103Z,18.37
2018-01-24T12:15:27.501Z,11.00
2018-01-24T12:17:54.644Z,6.00
2018-01-24T12:20:21.807Z,41.27
2018-01-24T12:22:48.239Z,13.33
2018-01-24T12:25:14.688Z,12.70
2018-01-24T12:27:41.147Z,21.30
2018-01-24T12:30:07.566Z,11.67
2018-01-24T12:32:34.001Z,18.47
2018-01-24T12:35:00.419Z,12.70
2018-01-24T12:37:26.840Z,8.40
2018-01-24T12:39:53.268Z,7.60
2018-01-24T12:42:19.686Z,17.73
2018-01-24T12:44:46.859Z,5.90
2018-01-24T12:47:13.306Z,5.73
2018-01-24T12:49:39.761Z,6.13
2018-01-24T12:52:06.175Z,8.77
2018-01-24T12:54:32.616Z,11.37
2018-01-24T12:56:59.033Z,6.83
2018-01-24T12:59:25.528Z,7.83
2018-01-24T13:01:52.749Z,11.20
2018-01-24T13:04:20.140Z,5.63
2018-01-24T13:06:47.317Z,9.53
2018-01-24T13:09:13.744Z,8.23
2018-01-24T13:11:40.195Z,8.87
2018-01-24T13:14:06.737Z,6.73
2018-01-24T13:16:33.151Z,7.20
2018-01-24T13:18:59.581Z,4.87
2018-01-24T13:21:26.044Z,9.53
2018-01-24T13:23:52.443Z,28.20
2018-01-24T13:26:18.850Z,13.57
2018-01-24T13:28:45.271Z,24.20
2018-01-24T13:31:11.683Z,30.07
2018-01-24T13:33:38.083Z,21.33
2018-01-24T13:36:04.609Z,8.97
2018-01-24T13:38:31.030Z,29.43
2018-01-24T13:40:58.142Z,23.47
2018-01-24T13:43:24.557Z,14.80
2018-01-24T13:45:50.981Z,15.60
2018-01-24T13:48:17.480Z,14.83
2018-01-24T13:50:43.911Z,8.43
2018-01-24T13:53:11.121Z,25.67
2018-01-24T13:55:37.512Z,14.63
2018-01-24T13:58:03.922Z,8.77
2018-01-24T14:00:31.066Z,7.70
2018-01-24T14:02:58.191Z,8.17
2018-01-24T14:05:24.682Z,7.87
2018-01-24T14:07:51.142Z,7.50
2018-01-24T14:10:17.543Z,5.80
2018-01-24T14:12:43.946Z,3.60
2018-01-24T14:15:11.158Z,9.60
2018-01-24T14:17:37.580Z,4.73
2018-01-24T14:20:04.041Z,3.60
2018-01-24T14:22:30.467Z,2.43
2018-01-24T14:24:56.886Z,2.23
2018-01-24T14:27:23.309Z,2.10
2018-01-24T14:29:49.713Z,3.10
2018-01-24T14:32:16.152Z,2.13
2018-01-24T14:34:42.616Z,2.27
2018-01-24T14:37:09.023Z,4.80
2018-01-24T14:39:35.406Z,3.50
2018-01-24T14:42:01.799Z,2.37
2018-01-24T14:44:28.202Z,2.60
2018-01-24T14:46:55.319Z,2.47
2018-01-24T14:49:21.720Z,2.30
2018-01-24T14:51:48.099Z,2.13
2018-01-24T14:54:14.515Z,2.00
2018-01-24T14:56:40.956Z,3.20
2018-01-24T14:59:07.362Z,1.83
2018-01-24T15:01:33.759Z,3.17
2018-01-24T15:04:01.154Z,3.10
2018-01-24T15:06:27.620Z,2.33
2018-01-24T15:08:54.009Z,4.10
2018-01-24T15:11:20.406Z,3.20
2018-01-24T15:13:47.567Z,2.30
2018-01-24T15:16:14.674Z,2.50
2018-01-24T15:18:41.798Z,8.13
2018-01-24T15:21:08.262Z,11.43
2018-01-24T15:23:35.648Z,11.47
2018-01-24T15:26:02.088Z,17.60
2018-01-24T15:28:30.053Z,7.07
2018-01-24T15:30:57.256Z,16.63
2018-01-24T15:33:23.637Z,7.03
2018-01-24T15:35:50.028Z,7.53
2018-01-24T15:38:17.906Z,11.90
2018-01-24T15:40:44.273Z,13.93
2018-01-24T15:43:10.642Z,14.27
2018-01-24T15:45:37.055Z,32.50
2018-01-24T15:48:03.455Z,52.27
2018-01-24T15:50:30.585Z,34.00
2018-01-24T15:52:57.732Z,31.10
2018-01-24T15:55:24.126Z,19.17
2018-01-24T15:57:50.505Z,19.73
2018-01-24T16:00:17.626Z,73.33
2018-01-24T16:02:43.998Z,29.17
2018-01-24T16:05:10.405Z,10.00
2018-01-24T16:07:36.845Z,16.87
2018-01-24T16:10:03.317Z,5.80
2018-01-24T16:12:29.772Z,40.40
2018-01-24T16:14:56.207Z,30.87
2018-01-24T16:17:22.573Z,13.00
2018-01-24T16:19:50.447Z,28.33
2018-01-24T16:22:16.804Z,41.10
2018-01-24T16:24:43.207Z,52.97
2018-01-24T16:27:10.346Z,41.23
2018-01-24T16:29:38.215Z,45.23
2018-01-24T16:32:04.598Z,22.43
2018-01-24T16:34:30.973Z,389.67
2018-01-24T16:36:57.415Z,38.10
2018-01-24T16:39:24.603Z,68.03
2018-01-24T16:41:50.998Z,37.73
2018-01-24T16:44:17.433Z,18.60
2018-01-24T16:46:44.589Z,8.80
2018-01-24T16:49:11.857Z,63.10
2018-01-24T16:51:38.289Z,85.47
2018-01-24T16:54:04.738Z,139.80
2018-01-24T16:56:31.504Z,107.20
2018-01-24T16:58:57.961Z,102.97
2018-01-24T17:01:25.880Z,71.53
2018-01-24T17:03:52.379Z,25.57
2018-01-24T17:06:19.530Z,19.97
2018-01-24T17:08:46.704Z,19.80
2018-01-24T17:11:13.084Z,14.97
2018-01-24T17:13:39.516Z,15.50
2018-01-24T17:16:05.939Z,15.73
2018-01-24T17:18:32.326Z,81.70
2018-01-24T17:20:58.783Z,32.90
2018-01-24T17:23:25.919Z,86.87
2018-01-24T17:25:52.327Z,34.73
2018-01-24T17:28:18.715Z,26.80
2018-01-24T17:30:45.105Z,38.30
2018-01-24T17:33:12.219Z,41.17
2018-01-24T17:35:38.603Z,80.83
2018-01-24T17:38:05.007Z,83.50
2018-01-24T17:40:32.127Z,53.80
2018-01-24T17:42:58.539Z,72.33
2018-01-24T17:45:24.992Z,636.90
2018-01-24T17:47:51.503Z,162.93
2018-01-24T17:50:17.967Z,83.67
2018-01-24T17:52:44.428Z,41.10
2018-01-24T17:55:11.597Z,37.53
2018-01-24T17:57:37.982Z,34.77
2018-01-24T18:00:04.390Z,145.17
2018-01-24T18:02:30.763Z,55.80
2018-01-24T18:04:57.885Z,91.23
2018-01-24T18:07:24.293Z,40.90
2018-01-24T18:09:50.692Z,27.23
2018-01-24T18:12:17.103Z,96.60
2018-01-24T18:14:44.254Z,25.60
2018-01-24T18:17:11.390Z,77.30
2018-01-24T18:19:37.772Z,126.10
2018-01-24T18:22:04.192Z,44.03
2018-01-24T18:24:30.624Z,26.93
2018-01-24T18:26:57.766Z,27.37
2018-01-24T18:29:24.172Z,27.73
2018-01-24T18:31:51.303Z,32.00
2018-01-24T18:34:17.702Z,34.97
2018-01-24T18:36:44.090Z,35.73
2018-01-24T18:39:10.504Z,34.47
2018-01-24T18:41:36.896Z,33.33
2018-01-24T18:44:03.263Z,32.03
2018-01-24T18:46:29.642Z,44.23
2018-01-24T18:48:56.771Z,47.93
2018-01-24T18:51:23.174Z,40.93
2018-01-24T18:53:49.571Z,61.50
2018-01-24T18:56:15.945Z,49.77
2018-01-24T18:58:42.391Z,56.07
2018-01-24T19:01:09.893Z,48.73
2018-01-24T19:03:36.358Z,59.93
2018-01-24T19:06:02.714Z,58.87
2018-01-24T19:08:29.066Z,66.27
2018-01-24T19:10:56.170Z,89.13
2018-01-24T19:13:22.554Z,79.97
2018-01-24T19:15:48.954Z,105.17
2018-01-24T19:18:16.310Z,161.13
2018-01-24T19:20:42.899Z,126.87
2018-01-24T19:23:09.322Z,137.03
2018-01-24T19:25:35.722Z,149.40
2018-01-24T19:28:02.085Z,129.67
2018-01-24T19:30:28.481Z,147.73
2018-01-24T19:32:54.865Z,118.37
2018-01-24T19:35:21.239Z,138.27
2018-01-24T19:37:49.111Z,173.83
2018-01-24T19:40:16.596Z,202.33
2018-01-24T19:42:43.736Z,190.03
2018-01-24T19:45:10.841Z,193.47
2018-01-24T19:47:37.260Z,197.23
2018-01-24T19:50:03.664Z,200.40
2018-01-24T19:52:30.800Z,202.97
2018-01-24T19:54:57.980Z,192.40
2018-01-24T19:57:24.386Z,180.07
2018-01-24T19:59:50.824Z,167.73
2018-01-24T20:02:18.022Z,151.23
2018-01-24T20:04:44.390Z,144.70
2018-01-24T20:07:11.506Z,146.47
2018-01-24T20:09:37.913Z,140.00
2018-01-24T20:12:04.291Z,157.67
2018-01-24T20:14:32.138Z,151.13
2018-01-24T20:16:58.605Z,159.03
2018-01-24T20:19:25.734Z,166.67
2018-01-24T20:21:52.867Z,145.20
2018-01-24T20:24:19.252Z,149.10
2018-01-24T20:26:46.370Z,166.53
2018-01-24T20:29:14.246Z,153.73
2018-01-24T20:31:44.165Z,147.97
2018-01-24T20:34:11.282Z,139.47
2018-01-24T20:36:37.665Z,139.07
2018-01-24T20:39:04.098Z,144.23
2018-01-24T20:41:30.673Z,143.90
2018-01-24T20:43:57.034Z,136.90
2018-01-24T20:46:23.417Z,151.23
2018-01-24T20:48:49.802Z,140.23
2018-01-24T20:51:17.646Z,156.27
2018-01-24T20:53:44.027Z,151.57
2018-01-24T20:56:10.412Z,136.33
2018-01-24T20:58:36.821Z,139.97
2018-01-24T21:01:03.206Z,163.80
2018-01-24T21:03:30.332Z,139.77
2018-01-24T21:05:56.738Z,149.30
2018-01-24T21:08:23.135Z,147.50
2018-01-24T21:10:50.250Z,147.67
2018-01-24T21:13:16.626Z,144.53
2018-01-24T21:15:43.042Z,145.80
2018-01-24T21:18:10.167Z,160.93
2018-01-24T21:20:36.550Z,147.27
2018-01-24T21:23:02.922Z,209.43
2018-01-24T21:25:29.373Z,345.00
2018-01-24T21:27:56.516Z,121.87
2018-01-24T21:30:22.957Z,140.10
2018-01-24T21:33:02.286Z,146.10
2018-01-24T21:35:41.752Z,164.03
2018-01-24T21:38:08.168Z,126.43
2018-01-24T21:40:35.300Z,132.13
2018-01-24T21:43:01.680Z,121.10
2018-01-24T21:45:28.052Z,134.57
2018-01-24T21:47:54.425Z,137.60
2018-01-24T21:50:20.895Z,126.93
2018-01-24T21:52:47.291Z,146.07
2018-01-24T21:55:16.152Z,138.00
2018-01-24T21:57:42.671Z,133.23
2018-01-24T22:00:09.098Z,137.90
2018-01-24T22:02:35.517Z,138.20
2018-01-24T22:05:01.920Z,140.10
2018-01-24T22:07:28.333Z,123.83
2018-01-24T22:09:55.468Z,117.43
2018-01-24T22:12:22.603Z,124.53
2018-01-24T22:14:49.230Z,140.97
2018-01-24T22:17:15.700Z,118.83
2018-01-24T22:19:42.814Z,123.33
2018-01-24T22:22:09.202Z,126.43
2018-01-24T22:24:35.598Z,125.87
2018-01-24T22:27:01.974Z,115.27
2018-01-24T22:29:28.342Z,127.00
2018-01-24T22:31:54.828Z,133.63
2018-01-24T22:34:21.245Z,148.50
2018-01-24T22:36:48.420Z,132.67
2018-01-24T22:39:14.845Z,144.40
2018-01-24T22:41:41.994Z,143.10
2018-01-24T22:44:08.410Z,165.23
2018-01-24T22:46:35.551Z,167.03
2018-01-24T22:49:01.971Z,135.00
2018-01-24T22:51:28.343Z,150.13
2018-01-24T22:53:54.730Z,169.23
2018-01-24T22:56:21.127Z,145.10
2018-01-24T22:58:47.537Z,127.67
2018-01-24T23:01:13.930Z,138.73
2018-01-24T23:03:40.323Z,129.97
2018-01-24T23:06:06.753Z,145.80
2018-01-24T23:08:33.140Z,145.03
2018-01-24T23:10:59.507Z,129.33
2018-01-24T23:13:26.070Z,146.70
2018-01-24T23:15:52.432Z,139.07
2018-01-24T23:18:18.809Z,136.60
2018-01-24T23:20:45.227Z,173.60
2018-01-24T23:23:11.602Z,155.47
2018-01-24T23:25:37.992Z,194.63
2018-01-24T23:28:04.398Z,182.57
2018-01-24T23:30:31.570Z,156.50
2018-01-24T23:32:57.983Z,129.77
2018-01-24T23:35:25.112Z,152.50
2018-01-24T23:37:53.019Z,164.70
2018-01-24T23:40:19.396Z,146.33
2018-01-24T23:42:45.769Z,151.30
2018-01-24T23:45:12.915Z,149.57
2018-01-24T23:47:40.039Z,149.43
2018-01-24T23:50:07.928Z,134.83
2018-01-24T23:52:35.926Z,133.57
2018-01-24T23:55:02.318Z,152.30
2018-01-24T23:57:30.194Z,187.70
2018-01-24T23:59:57.305Z,174.83
